Time;durP1;ratioP1;P1;durP2;ratioP2;P2;SDS_P1;SDS_P2;PMS_P1;PMS_P2;Temp;Humidity;BMP_temperature;BMP_pressure;BME280_temperature;BME280_humidity;BME280_pressure;Samples;Min_cycle;Max_cycle;Signal;HPM_P1;HPM_P2
2023/01/13 00:01:50;;;;;;;3.22;1.48;;;12.00;82.80;;;;;;5107865;28;20027;-65
2023/01/13 00:04:15;;;;;;;4.30;1.70;;;12.00;82.40;;;;;;5112642;28;20032;-65
2023/01/13 00:06:41;;;;;;;10.60;2.67;;;11.90;79.90;;;;;;5100375;28;20076;-66
2023/01/13 00:09:07;;;;;;;6.97;1.92;;;11.90;80.50;;;;;;5100279;28;20375;-65
2023/01/13 00:11:32;;;;;;;2.45;1.08;;;11.90;80.30;;;;;;5101673;28;20044;-65
2023/01/13 00:13:58;;;;;;;5.38;1.77;;;11.80;79.30;;;;;;5083213;28;20102;-65
2023/01/13 00:16:23;;;;;;;6.45;1.67;;;11.80;79.50;;;;;;5079678;28;20028;-65
2023/01/13 00:18:52;;;;;;;5.18;2.15;;;11.80;79.50;;;;;;5098674;28;20514;-65
2023/01/13 00:21:20;;;;;;;13.27;1.77;;;11.70;79.10;;;;;;5091033;28;20028;-60
2023/01/13 00:23:46;;;;;;;9.20;2.35;;;11.70;79.10;;;;;;5101985;28;20043;-60
2023/01/13 00:26:19;;;;;;;5.18;1.38;;;11.60;77.80;;;;;;5104266;28;20102;-66
2023/01/13 00:28:45;;;;;;;5.43;1.77;;;11.50;78.50;;;;;;5093596;28;20039;-66
2023/01/13 00:31:16;;;;;;;13.27;2.63;;;11.50;78.50;;;;;;5107266;28;20115;-66
2023/01/13 00:33:42;;;;;;;3.95;2.13;;;11.50;78.10;;;;;;5099847;28;20036;-66
2023/01/13 00:36:11;;;;;;;6.75;1.80;;;11.40;78.20;;;;;;5074971;28;20314;-66
2023/01/13 00:38:38;;;;;;;10.00;2.60;;;11.40;78.10;;;;;;5108622;28;20089;-66
2023/01/13 00:41:06;;;;;;;4.28;1.52;;;11.30;78.60;;;;;;5104346;28;20026;-66
2023/01/13 00:43:36;;;;;;;12.95;1.92;;;11.30;78.30;;;;;;5107659;28;20274;-66
2023/01/13 00:46:04;;;;;;;7.65;1.85;;;11.20;78.40;;;;;;5107666;28;20016;-60
2023/01/13 00:48:31;;;;;;;10.00;2.60;;;11.20;78.70;;;;;;5108346;28;20114;-61
2023/01/13 00:51:02;;;;;;;4.25;1.75;;;11.20;78.70;;;;;;5109560;28;20020;-66
2023/01/13 00:53:31;;;;;;;7.35;1.98;;;11.20;79.00;;;;;;5089463;28;20396;-65
2023/01/13 00:56:06;;;;;;;7.05;3.08;;;11.20;79.40;;;;;;5098923;28;20045;-66
2023/01/13 00:58:33;;;;;;;8.73;2.33;;;11.20;79.20;;;;;;5097428;28;20123;-59
2023/01/13 01:01:05;;;;;;;3.08;1.85;;;11.10;79.10;;;;;;5100421;28;20116;-60
2023/01/13 01:03:30;;;;;;;2.90;1.30;;;11.10;79.50;;;;;;5095907;28;20119;-66
2023/01/13 01:06:02;;;;;;;7.95;2.33;;;11.00;79.60;;;;;;5111801;28;20069;-66
2023/01/13 01:08:27;;;;;;;9.43;2.22;;;11.00;79.70;;;;;;5109828;28;20019;-66
2023/01/13 01:11:04;;;;;;;5.88;2.72;;;11.00;80.00;;;;;;5107795;28;20031;-65
2023/01/13 01:13:30;;;;;;;7.75;2.60;;;11.00;80.00;;;;;;5091332;28;20027;-60
2023/01/13 01:15:55;;;;;;;21.65;2.58;;;10.90;80.10;;;;;;5070506;28;20016;-61
2023/01/13 01:18:21;;;;;;;4.75;1.65;;;10.90;80.10;;;;;;5097720;28;20110;-66
2023/01/13 01:20:47;;;;;;;5.25;2.00;;;10.90;80.20;;;;;;5110334;28;20105;-66
2023/01/13 01:23:12;;;;;;;4.07;2.10;;;10.90;80.00;;;;;;5092909;28;20032;-66
2023/01/13 01:25:38;;;;;;;8.02;2.28;;;10.90;79.80;;;;;;5103591;28;20032;-66
2023/01/13 01:28:04;;;;;;;10.05;2.03;;;10.90;79.50;;;;;;5098535;28;20500;-60
2023/01/13 01:30:30;;;;;;;10.57;2.30;;;10.90;79.70;;;;;;5093943;28;20036;-65
2023/01/13 01:32:56;;;;;;;16.85;2.33;;;10.90;79.20;;;;;;5109827;28;20114;-65
2023/01/13 01:35:23;;;;;;;9.80;2.65;;;10.90;78.80;;;;;;5095033;28;20024;-65
2023/01/13 01:37:49;;;;;;;10.05;2.42;;;10.90;78.90;;;;;;5097480;28;20038;-66
2023/01/13 01:40:15;;;;;;;5.90;1.92;;;10.90;79.00;;;;;;5103950;28;20036;-66
2023/01/13 01:45:29;;;;;;;4.55;1.95;;;11.00;78.80;;;;;;5092408;28;20039;-65
2023/01/13 01:48:02;;;;;;;12.73;3.17;;;10.90;78.80;;;;;;5096885;28;20483;-65
2023/01/13 01:50:29;;;;;;;6.70;2.45;;;10.90;78.50;;;;;;5104895;28;20020;-65
2023/01/13 01:53:16;;;;;;;12.75;2.88;;;10.90;78.50;;;;;;5085809;28;20042;-66
2023/01/13 01:55:42;;;;;;;10.77;3.30;;;10.90;78.50;;;;;;5108861;28;20073;-65
2023/01/13 01:58:10;;;;;;;3.38;1.65;;;10.80;78.70;;;;;;5107494;28;20035;-66
2023/01/13 02:00:36;;;;;;;7.25;2.72;;;10.80;78.60;;;;;;5096401;28;20035;-65
2023/01/13 02:03:03;;;;;;;6.00;2.60;;;10.80;78.90;;;;;;5092282;28;20035;-60
2023/01/13 02:05:29;;;;;;;7.85;2.47;;;10.70;78.90;;;;;;5079440;28;20040;-61
2023/01/13 02:07:57;;;;;;;10.77;2.97;;;10.70;79.00;;;;;;5093217;28;20123;-60
2023/01/13 02:10:26;;;;;;;7.55;2.30;;;10.60;79.00;;;;;;5109452;28;20592;-60
2023/01/13 02:12:54;;;;;;;5.30;2.22;;;10.60;79.00;;;;;;5108398;28;20409;-66
2023/01/13 02:15:28;;;;;;;12.10;2.75;;;10.60;79.30;;;;;;5109603;28;20023;-65
2023/01/13 02:17:59;;;;;;;5.55;2.25;;;10.60;79.40;;;;;;5103347;28;20050;-65
2023/01/13 02:20:40;;;;;;;12.27;2.22;;;10.60;79.50;;;;;;5099644;28;20023;-66
2023/01/13 02:26:43;;;;;;;9.02;2.25;;;10.60;79.10;;;;;;5107894;28;20035;-66
2023/01/13 02:32:34;;;;;;;4.18;1.60;;;10.50;79.30;;;;;;5095358;28;20051;-60
2023/01/13 02:35:12;;;;;;;4.57;2.05;;;10.50;79.40;;;;;;5098161;28;20386;-60
2023/01/13 02:37:41;;;;;;;6.30;2.47;;;10.50;79.60;;;;;;5098771;28;20039;-60
2023/01/13 02:40:25;;;;;;;13.43;2.72;;;10.50;79.40;;;;;;5095238;28;20371;-60
2023/01/13 02:46:16;;;;;;;6.97;2.35;;;10.50;79.30;;;;;;5081756;28;20027;-60
2023/01/13 02:48:45;;;;;;;9.93;3.15;;;10.40;79.50;;;;;;5076246;28;20437;-65
2023/01/13 02:51:18;;;;;;;6.72;1.92;;;10.50;79.40;;;;;;5096349;28;20024;-65
2023/01/13 02:53:53;;;;;;;17.13;2.10;;;10.40;79.40;;;;;;5098530;28;20018;-66
2023/01/13 02:56:21;;;;;;;16.00;2.88;;;10.40;79.30;;;;;;5087488;28;20024;-66
2023/01/13 02:58:49;;;;;;;3.65;1.83;;;10.40;79.10;;;;;;5100149;28;20051;-59
2023/01/13 03:01:15;;;;;;;12.52;3.10;;;10.50;78.80;;;;;;5099253;28;20427;-60
2023/01/13 03:03:42;;;;;;;15.05;2.47;;;10.50;78.80;;;;;;5076499;28;20032;-60
2023/01/13 03:06:28;;;;;;;11.00;3.22;;;10.40;78.60;;;;;;5074851;28;20578;-66
2023/01/13 03:09:13;;;;;;;13.75;2.65;;;10.50;78.50;;;;;;5085726;28;20036;-66
2023/01/13 03:11:50;;;;;;;6.53;1.65;;;10.40;78.40;;;;;;5105520;28;20058;-66
2023/01/13 03:14:16;;;;;;;11.10;2.35;;;10.50;78.30;;;;;;5098067;28;20027;-65
2023/01/13 03:16:52;;;;;;;12.23;3.63;;;10.40;78.40;;;;;;5093918;28;20027;-66
2023/01/13 03:19:51;;;;;;;17.05;3.30;;;10.50;78.00;;;;;;5099944;28;20034;-60
2023/01/13 03:22:26;;;;;;;11.65;2.95;;;10.50;77.60;;;;;;5084596;28;20051;-60
2023/01/13 03:24:59;;;;;;;7.25;2.55;;;10.50;77.70;;;;;;5101143;28;20028;-65
2023/01/13 03:27:28;;;;;;;3.75;1.83;;;10.60;77.50;;;;;;5092912;28;20036;-65
2023/01/13 03:29:56;;;;;;;5.05;2.03;;;10.60;77.60;;;;;;5102562;28;20037;-66
2023/01/13 03:32:27;;;;;;;3.72;1.80;;;10.60;77.10;;;;;;5095418;28;20107;-66
2023/01/13 03:35:01;;;;;;;8.55;3.03;;;10.60;76.80;;;;;;5106797;28;20031;-66
2023/01/13 03:37:36;;;;;;;6.40;2.22;;;10.60;76.50;;;;;;5097125;28;20015;-66
2023/01/13 03:40:13;;;;;;;18.23;2.83;;;10.60;76.80;;;;;;5091778;28;20027;-66
2023/01/13 03:44:20;;;;;;;9.90;2.75;;;10.60;76.40;;;;;;5106693;28;20643;-59
2023/01/13 03:45:31;;;;;;;20.90;3.05;;;10.60;76.00;;;;;;5105363;28;20027;-60
2023/01/13 03:48:02;;;;;;;4.60;2.17;;;10.60;76.20;;;;;;5101472;28;20499;-65
2023/01/13 03:50:34;;;;;;;5.22;2.03;;;10.60;76.40;;;;;;5103983;28;20035;-66
2023/01/13 03:53:06;;;;;;;;;;;10.60;76.60;;;;;;5107270;28;20499;-66
2023/01/13 03:55:39;;;;;;;6.97;3.20;;;10.50;76.60;;;;;;5104436;28;19951;-66
2023/01/13 03:58:32;;;;;;;6.35;1.83;;;10.50;76.70;;;;;;5095975;28;20032;-66
2023/01/13 04:01:11;;;;;;;9.68;2.35;;;10.50;76.70;;;;;;5087208;28;20047;-66
2023/01/13 04:03:49;;;;;;;9.18;2.53;;;10.60;76.90;;;;;;5084646;28;20112;-66
2023/01/13 04:06:20;;;;;;;8.98;2.42;;;10.60;76.70;;;;;;5099620;28;20094;-66
2023/01/13 04:09:04;;;;;;;9.70;2.13;;;10.60;76.80;;;;;;5105623;28;20063;-66
2023/01/13 04:11:56;;;;;;;5.40;2.25;;;10.60;76.70;;;;;;5086680;28;20540;-66
2023/01/13 04:14:23;;;;;;;5.47;1.95;;;10.60;76.60;;;;;;5095151;28;20122;-66
2023/01/13 04:16:49;;;;;;;5.10;2.67;;;10.60;76.80;;;;;;5111861;28;20054;-66
2023/01/13 04:19:14;;;;;;;11.27;3.25;;;10.60;76.90;;;;;;5105114;28;20019;-67
2023/01/13 04:21:40;;;;;;;5.78;2.05;;;10.60;77.00;;;;;;5093706;28;20484;-67
2023/01/13 04:24:07;;;;;;;3.67;1.70;;;10.50;77.10;;;;;;5098040;28;20033;-59
2023/01/13 04:26:33;;;;;;;10.73;2.92;;;10.50;77.20;;;;;;5091228;28;20111;-59
2023/01/13 04:28:58;;;;;;;4.55;1.55;;;10.50;77.20;;;;;;5086823;28;20134;-60
2023/01/13 04:31:24;;;;;;;5.43;2.15;;;10.40;77.30;;;;;;5091451;28;20032;-66
2023/01/13 04:33:50;;;;;;;9.20;2.10;;;10.40;77.30;;;;;;5073482;28;20028;-66
2023/01/13 04:36:15;;;;;;;18.55;2.90;;;10.40;77.30;;;;;;5091893;28;20055;-66
2023/01/13 04:38:41;;;;;;;4.57;1.35;;;10.40;77.10;;;;;;5087508;28;20130;-66
2023/01/13 04:41:07;;;;;;;6.85;2.25;;;10.30;77.00;;;;;;5104191;28;20034;-66
2023/01/13 04:43:32;;;;;;;8.70;1.65;;;10.30;76.90;;;;;;5074120;28;20048;-66
2023/01/13 04:45:58;;;;;;;2.50;1.20;;;10.30;76.50;;;;;;5091225;28;20043;-60
2023/01/13 04:48:24;;;;;;;4.10;1.90;;;10.30;76.60;;;;;;5110399;28;20378;-60
2023/01/13 04:50:49;;;;;;;9.88;1.70;;;10.20;76.00;;;;;;5108232;28;20063;-61
2023/01/13 04:53:15;;;;;;;3.30;0.98;;;10.30;75.70;;;;;;5110096;28;20051;-59
2023/01/13 04:55:43;;;;;;;3.22;1.00;;;10.30;75.40;;;;;;5091981;28;20063;-60
2023/01/13 04:58:10;;;;;;;2.03;0.93;;;10.20;75.00;;;;;;5080262;28;20028;-60
2023/01/13 05:00:37;;;;;;;0.95;0.77;;;10.20;74.60;;;;;;5093811;28;20387;-60
2023/01/13 05:03:03;;;;;;;2.00;1.35;;;10.20;74.20;;;;;;5094571;28;20044;-60
2023/01/13 05:05:29;;;;;;;14.82;1.25;;;10.20;73.80;;;;;;5112150;28;20028;-60
2023/01/13 05:07:55;;;;;;;0.82;0.65;;;10.10;73.00;;;;;;5109037;28;20085;-60
2023/01/13 05:10:21;;;;;;;8.93;1.55;;;10.20;72.80;;;;;;5111068;28;20035;-60
2023/01/13 05:18:17;;;;;;;1.60;0.73;;;10.10;72.80;;;;;;5096001;28;20046;-66
2023/01/13 05:20:44;;;;;;;9.43;1.15;;;10.20;72.50;;;;;;5106866;28;20028;-66
2023/01/13 05:25:53;;;;;;;3.22;1.10;;;10.10;72.70;;;;;;5098453;28;20070;-60
2023/01/13 05:28:19;;;;;;;5.18;1.33;;;10.10;72.90;;;;;;5095963;28;20032;-60
2023/01/13 05:30:47;;;;;;;6.93;1.20;;;10.10;72.90;;;;;;5106519;28;20024;-66
2023/01/13 05:33:16;;;;;;;1.25;0.85;;;10.10;73.20;;;;;;5101794;28;20059;-66
2023/01/13 05:35:44;;;;;;;2.47;1.02;;;10.20;73.50;;;;;;5095861;28;20105;-66
2023/01/13 05:38:10;;;;;;;5.38;0.90;;;10.20;73.50;;;;;;5098675;28;20035;-60
2023/01/13 05:43:25;;;;;;;1.92;0.90;;;10.20;73.90;;;;;;5099021;28;20448;-66
2023/01/13 05:45:55;;;;;;;2.38;1.20;;;10.20;74.20;;;;;;5093728;28;20123;-66
2023/01/13 05:48:23;;;;;;;5.43;1.17;;;10.20;74.50;;;;;;5088394;28;20036;-66
2023/01/13 05:50:49;;;;;;;2.05;1.23;;;10.20;74.80;;;;;;5091913;28;20016;-60
2023/01/13 05:53:16;;;;;;;3.10;1.13;;;10.20;74.80;;;;;;5092978;28;20453;-61
2023/01/13 05:55:43;;;;;;;6.35;1.95;;;10.20;75.00;;;;;;5092665;28;20024;-60
2023/01/13 05:58:11;;;;;;;2.65;1.08;;;10.30;75.90;;;;;;5092649;28;20600;-66
2023/01/13 06:00:37;;;;;;;4.85;0.80;;;10.30;75.60;;;;;;5089537;28;20574;-60
2023/01/13 06:03:03;;;;;;;4.53;1.63;;;10.30;75.80;;;;;;5092740;28;20028;-66
2023/01/13 06:05:29;;;;;;;3.28;0.85;;;10.20;76.00;;;;;;5102755;28;20096;-66
2023/01/13 06:07:57;;;;;;;4.90;0.90;;;10.20;76.10;;;;;;5081291;28;20372;-70
2023/01/13 06:10:23;;;;;;;2.70;1.23;;;10.10;76.00;;;;;;5095899;28;20027;-69
2023/01/13 06:12:49;;;;;;;16.33;2.28;;;10.10;76.00;;;;;;5087018;28;20055;-70
2023/01/13 06:15:15;;;;;;;1.00;0.90;;;10.10;76.20;;;;;;5087550;28;20047;-70
2023/01/13 06:17:40;;;;;;;3.88;1.48;;;10.00;76.20;;;;;;5101906;28;20039;-70
2023/01/13 06:20:07;;;;;;;12.23;1.67;;;10.10;76.20;;;;;;5097028;28;20176;-62
2023/01/13 06:22:38;;;;;;;3.47;1.42;;;10.00;76.10;;;;;;5089869;28;20024;-69
2023/01/13 06:25:11;;;;;;;4.18;1.27;;;10.00;76.00;;;;;;5091866;28;20395;-69
2023/01/13 06:27:37;;;;;;;0.95;0.88;;;10.00;76.10;;;;;;5094766;28;20387;-71
2023/01/13 06:30:03;;;;;;;2.67;1.38;;;10.00;76.80;;;;;;5086616;28;20028;-68
2023/01/13 06:32:34;;;;;;;2.85;0.95;;;9.90;76.20;;;;;;5077033;28;20047;-70
2023/01/13 06:35:05;;;;;;;6.75;1.80;;;10.00;76.20;;;;;;5093574;28;20475;-70
2023/01/13 06:37:33;;;;;;;1.02;0.90;;;10.00;76.40;;;;;;5091005;28;20382;-69
2023/01/13 06:40:01;;;;;;;7.15;1.50;;;9.90;76.40;;;;;;5088974;28;20055;-69
2023/01/13 06:45:16;;;;;;;8.20;1.95;;;9.90;76.60;;;;;;5092669;28;20043;-68
2023/01/13 06:47:42;;;;;;;6.88;1.75;;;9.80;76.60;;;;;;5100533;28;20031;-68
2023/01/13 06:50:09;;;;;;;17.27;1.25;;;9.90;76.80;;;;;;5102081;28;20055;-69
2023/01/13 06:52:35;;;;;;;6.90;1.80;;;9.80;76.70;;;;;;5097866;28;20020;-69
2023/01/13 06:55:01;;;;;;;2.70;1.30;;;9.80;76.70;;;;;;5081197;28;20045;-69
2023/01/13 06:57:27;;;;;;;6.03;1.75;;;9.80;76.80;;;;;;5082947;28;20062;-69
2023/01/13 06:59:53;;;;;;;4.25;1.45;;;9.80;76.80;;;;;;5098904;28;20059;-67
2023/01/13 07:02:19;;;;;;;7.30;1.80;;;9.90;76.70;;;;;;5087067;28;20534;-69
2023/01/13 07:04:45;;;;;;;3.85;1.40;;;9.90;76.80;;;;;;5070863;28;20040;-62
2023/01/13 07:07:11;;;;;;;5.03;1.88;;;9.90;76.70;;;;;;5079730;28;20036;-63
2023/01/13 07:09:38;;;;;;;4.80;1.67;;;9.90;76.30;;;;;;5104183;28;20381;-63
2023/01/13 07:12:04;;;;;;;11.85;1.20;;;9.90;76.50;;;;;;5082874;28;20051;-62
2023/01/13 07:17:13;;;;;;;3.95;1.05;;;9.90;76.70;;;;;;5086132;28;20398;-66
2023/01/13 07:19:39;;;;;;;13.52;1.85;;;9.90;76.70;;;;;;5094975;28;20023;-62
2023/01/13 07:22:05;;;;;;;4.85;1.92;;;9.90;76.50;;;;;;5090324;28;20089;-73
2023/01/13 07:24:31;;;;;;;11.45;2.90;;;9.90;76.40;;;;;;5076064;28;20032;-63
2023/01/13 07:26:56;;;;;;;3.22;1.45;;;10.00;76.20;;;;;;5105033;28;20099;-62
2023/01/13 07:29:22;;;;;;;8.48;2.00;;;10.00;76.10;;;;;;5100927;28;20072;-62
2023/01/13 07:31:48;;;;;;;1.83;1.35;;;10.00;76.10;;;;;;5106047;28;20027;-63
2023/01/13 07:34:14;;;;;;;5.63;2.30;;;10.00;76.00;;;;;;5088429;28;20081;-72
2023/01/13 07:36:39;;;;;;;4.18;2.05;;;10.00;75.90;;;;;;5071431;28;20035;-72
2023/01/13 07:39:05;;;;;;;7.15;1.85;;;10.00;75.80;;;;;;5070612;28;20443;-71
2023/01/13 07:44:15;;;;;;;6.22;2.03;;;10.10;76.10;;;;;;5092103;28;20071;-71
2023/01/13 07:46:41;;;;;;;7.60;2.80;;;10.00;75.10;;;;;;5069445;28;20072;-71
2023/01/13 07:49:07;;;;;;;10.30;2.00;;;10.00;75.20;;;;;;5092491;28;20039;-69
2023/01/13 07:51:38;;;;;;;4.63;1.30;;;10.00;75.20;;;;;;5093569;28;20028;-62
2023/01/13 07:54:04;;;;;;;7.97;1.50;;;9.90;75.30;;;;;;5081070;28;20016;-71
2023/01/13 07:56:30;;;;;;;8.27;2.20;;;9.90;75.10;;;;;;5091946;28;20036;-63
2023/01/13 07:58:58;;;;;;;7.10;1.83;;;9.90;74.90;;;;;;5075250;28;20455;-71
2023/01/13 08:01:26;;;;;;;7.97;2.28;;;9.90;75.00;;;;;;5075174;28;20123;-71
2023/01/13 08:03:52;;;;;;;9.50;1.48;;;9.90;74.80;;;;;;5092861;28;20032;-68
2023/01/13 08:06:18;;;;;;;5.68;1.75;;;10.00;74.70;;;;;;5105993;28;20480;-68
2023/01/13 08:08:44;;;;;;;8.98;1.90;;;10.00;74.60;;;;;;5092013;28;20028;-62
2023/01/13 08:11:09;;;;;;;6.70;2.33;;;10.00;74.60;;;;;;5090872;28;20032;-69
2023/01/13 08:13:35;;;;;;;6.57;1.58;;;10.10;74.60;;;;;;5085120;28;20028;-71
2023/01/13 08:16:06;;;;;;;5.40;2.40;;;10.10;74.20;;;;;;5091003;28;20060;-70
2023/01/13 08:18:33;;;;;;;2.50;1.35;;;10.10;74.10;;;;;;5089883;28;20043;-70
2023/01/13 08:21:06;;;;;;;6.25;2.10;;;10.10;74.30;;;;;;5091625;28;20031;-61
2023/01/13 08:23:32;;;;;;;7.45;2.63;;;10.10;74.20;;;;;;5086630;28;20028;-71
2023/01/13 08:26:04;;;;;;;5.70;1.83;;;10.10;74.00;;;;;;5073713;28;20153;-62
2023/01/13 08:28:30;;;;;;;2.63;1.58;;;10.10;74.00;;;;;;5086847;28;20032;-61
2023/01/13 08:31:02;;;;;;;3.80;1.73;;;10.10;74.10;;;;;;5090642;28;20031;-61
2023/01/13 08:33:28;;;;;;;6.30;2.10;;;10.10;74.20;;;;;;5074313;28;20031;-62
2023/01/13 08:35:55;;;;;;;8.57;2.15;;;10.10;74.20;;;;;;5096282;28;20359;-61
2023/01/13 08:38:21;;;;;;;11.27;1.30;;;10.10;74.00;;;;;;5105378;28;20035;-69
2023/01/13 08:40:47;;;;;;;5.63;2.17;;;10.10;74.20;;;;;;5102027;28;20041;-71
2023/01/13 08:43:12;;;;;;;5.18;1.92;;;10.10;73.90;;;;;;5103715;28;20497;-70
2023/01/13 08:45:38;;;;;;;8.85;1.85;;;10.10;74.00;;;;;;5048116;28;20821;-70
2023/01/13 08:48:04;;;;;;;6.47;1.90;;;10.10;73.90;;;;;;5089704;28;20110;-70
2023/01/13 08:50:30;;;;;;;5.95;2.05;;;10.10;74.00;;;;;;5088635;28;20036;-69
2023/01/13 08:52:56;;;;;;;7.82;2.55;;;10.20;73.90;;;;;;5071316;28;20031;-69
2023/01/13 08:55:22;;;;;;;5.00;1.45;;;10.10;73.80;;;;;;5073911;28;20020;-68
2023/01/13 08:57:48;;;;;;;6.75;2.13;;;10.10;73.90;;;;;;5068628;28;20040;-69
2023/01/13 09:00:15;;;;;;;3.53;1.67;;;10.20;73.90;;;;;;5075684;28;20057;-68
2023/01/13 09:02:41;;;;;;;2.15;1.63;;;10.20;74.10;;;;;;5066274;28;20107;-69
2023/01/13 09:05:08;;;;;;;5.97;1.08;;;10.20;74.00;;;;;;5096536;28;20122;-60
2023/01/13 09:07:36;;;;;;;9.05;2.88;;;10.20;74.10;;;;;;5089615;28;20030;-61
2023/01/13 09:10:04;;;;;;;8.02;1.80;;;10.20;73.90;;;;;;5099347;28;20036;-60
2023/01/13 09:15:17;;;;;;;12.68;2.30;;;10.20;73.90;;;;;;5068689;28;20036;-67
2023/01/13 09:17:43;;;;;;;5.75;2.13;;;10.20;74.10;;;;;;5090385;28;20020;-69
2023/01/13 09:20:10;;;;;;;3.85;1.63;;;10.20;74.50;;;;;;5060694;28;20060;-69
2023/01/13 09:22:36;;;;;;;10.27;2.85;;;10.10;75.00;;;;;;5080351;28;20040;-68
2023/01/13 09:25:03;;;;;;;11.27;2.28;;;10.10;75.50;;;;;;5086973;28;20047;-68
2023/01/13 09:27:28;;;;;;;10.05;1.90;;;10.10;76.20;;;;;;5074825;28;20028;-61
2023/01/13 09:29:54;;;;;;;7.53;2.30;;;10.10;76.50;;;;;;5090256;28;20392;-60
2023/01/13 09:32:20;;;;;;;4.68;1.55;;;10.10;76.70;;;;;;5096197;28;20028;-61
2023/01/13 09:35:01;;;;;;;4.72;1.88;;;10.00;76.60;;;;;;5094791;28;20141;-60
2023/01/13 09:37:29;;;;;;;7.18;2.88;;;10.10;76.40;;;;;;5089154;28;20555;-60
2023/01/13 09:39:55;;;;;;;6.60;1.60;;;10.10;75.90;;;;;;5089401;28;20031;-60
2023/01/13 09:45:31;;;;;;;6.18;2.00;;;10.10;75.90;;;;;;5085992;28;20057;-68
2023/01/13 09:48:04;;;;;;;10.38;2.47;;;10.10;76.10;;;;;;5081256;28;20134;-60
2023/01/13 09:50:46;;;;;;;4.22;1.85;;;10.20;76.30;;;;;;5098739;28;20098;-60
2023/01/13 09:53:26;;;;;;;11.93;2.67;;;10.10;76.20;;;;;;5088660;28;20107;-60
2023/01/13 09:55:52;;;;;;;6.85;2.03;;;10.10;76.60;;;;;;5069378;28;20101;-61
2023/01/13 09:58:18;;;;;;;4.55;2.15;;;10.10;77.00;;;;;;5102342;27;20060;-68
2023/01/13 10:00:57;;;;;;;9.07;2.20;;;10.10;77.30;;;;;;5087863;28;20027;-69
2023/01/13 10:03:30;;;;;;;5.97;2.55;;;10.00;77.70;;;;;;5089587;28;20631;-68
2023/01/13 10:06:19;;;;;;;7.10;2.47;;;9.90;78.20;;;;;;5100478;28;20521;-60
2023/01/13 10:08:47;;;;;;;13.15;1.98;;;9.90;78.70;;;;;;5079444;28;20516;-68
2023/01/13 10:14:16;;;;;;;13.48;3.00;;;9.90;79.70;;;;;;5079711;28;20039;-60
2023/01/13 10:17:03;;;;;;;13.27;2.83;;;9.80;80.00;;;;;;5087930;28;20133;-60
2023/01/13 10:19:42;;;;;;;13.55;2.78;;;9.80;80.50;;;;;;5070412;28;20137;-59
2023/01/13 10:22:14;;;;;;;6.00;2.47;;;9.80;80.70;;;;;;5097016;28;20486;-60
2023/01/13 10:25:11;;;;;;;12.65;3.28;;;9.80;81.00;;;;;;5087178;28;20382;-60
2023/01/13 10:27:38;;;;;;;11.98;2.75;;;9.80;81.10;;;;;;5070288;28;20588;-60
2023/01/13 10:30:32;;;;;;;12.30;2.58;;;9.70;81.40;;;;;;5066622;28;20032;-60
2023/01/13 10:33:01;;;;;;;6.45;2.08;;;9.70;81.60;;;;;;5084074;28;20497;-68
2023/01/13 10:35:50;;;;;;;4.07;1.70;;;9.60;81.30;;;;;;5086835;28;20513;-69
2023/01/13 10:38:20;;;;;;;11.27;1.63;;;9.60;81.20;;;;;;5068611;28;20059;-69
2023/01/13 10:40:52;;;;;;;4.68;2.58;;;9.70;81.60;;;;;;5086320;28;20044;-69
2023/01/13 10:43:18;;;;;;;4.22;1.83;;;9.70;81.60;;;;;;5086463;28;20051;-69
2023/01/13 10:46:05;;;;;;;3.95;2.05;;;9.70;81.50;;;;;;5089299;28;20132;-68
2023/01/13 10:48:51;;;;;;;7.63;2.15;;;9.80;81.50;;;;;;5070527;28;20031;-69
2023/01/13 10:51:38;;;;;;;8.20;1.98;;;9.80;81.40;;;;;;5089529;28;20376;-70
2023/01/13 10:54:10;;;;;;;7.60;2.33;;;9.80;81.30;;;;;;5088449;28;20098;-69
2023/01/13 10:56:36;;;;;;;7.00;2.17;;;9.80;81.20;;;;;;5092520;28;20027;-69
2023/01/13 10:59:13;;;;;;;7.65;2.78;;;9.90;81.10;;;;;;5087169;28;20463;-69
2023/01/13 11:01:42;;;;;;;6.22;1.63;;;10.00;80.80;;;;;;5089449;28;20089;-69
2023/01/13 11:04:36;;;;;;;6.75;1.58;;;9.90;80.60;;;;;;5094354;28;20461;-69
2023/01/13 11:07:05;;;;;;;8.52;2.58;;;10.00;80.40;;;;;;5078561;28;20070;-69
2023/01/13 11:09:31;;;;;;;5.35;2.47;;;10.00;80.50;;;;;;5073642;28;20527;-61
2023/01/13 11:11:58;;;;;;;6.00;2.50;;;10.00;80.60;;;;;;5090191;28;20033;-61
2023/01/13 11:14:38;;;;;;;7.60;1.75;;;10.00;81.00;;;;;;5087988;28;20036;-61
2023/01/13 11:17:24;;;;;;;14.45;1.95;;;10.00;81.20;;;;;;5069478;28;20031;-61
2023/01/13 11:19:58;;;;;;;8.35;1.67;;;10.00;81.50;;;;;;5060009;28;20494;-61
2023/01/13 11:22:30;;;;;;;8.68;2.65;;;9.90;82.00;;;;;;5089041;28;20032;-68
2023/01/13 11:25:03;;;;;;;9.40;2.45;;;9.70;82.50;;;;;;5100065;28;20370;-61
2023/01/13 11:27:34;;;;;;;;;;;9.70;83.00;;;;;;5090980;28;20016;-69
2023/01/13 11:30:08;;;;;;;9.27;1.80;;;9.70;83.40;;;;;;5101567;28;20060;-61
2023/01/13 11:32:47;;;;;;;9.98;1.50;;;9.60;83.70;;;;;;5094905;28;20096;-60
2023/01/13 11:35:19;;;;;;;8.88;2.30;;;9.70;83.70;;;;;;5111479;27;20020;-69
2023/01/13 11:37:52;;;;;;;4.50;1.52;;;9.80;83.60;;;;;;5092829;28;20474;-69
2023/01/13 11:40:31;;;;;;;11.60;2.72;;;9.80;83.40;;;;;;5093164;28;20169;-69
2023/01/13 11:43:10;;;;;;;14.32;2.30;;;9.90;83.30;;;;;;5076920;28;20024;-69
2023/01/13 11:45:43;;;;;;;5.75;1.65;;;9.90;83.00;;;;;;5104248;28;20042;-69
2023/01/13 11:48:14;;;;;;;7.03;2.78;;;10.00;83.00;;;;;;5101647;28;20024;-69
2023/01/13 11:50:42;;;;;;;8.50;2.13;;;10.00;82.80;;;;;;5101840;28;20030;-68
2023/01/13 11:53:26;;;;;;;10.18;2.72;;;10.00;82.80;;;;;;5082835;28;20039;-69
2023/01/13 11:56:28;;;;;;;13.93;2.08;;;10.10;82.70;;;;;;5090348;28;20107;-68
2023/01/13 11:59:21;;;;;;;5.07;2.10;;;10.10;82.70;;;;;;5084913;28;20032;-69
2023/01/13 12:02:02;;;;;;;15.63;2.90;;;10.10;82.40;;;;;;5093961;28;20153;-61
2023/01/13 12:04:48;;;;;;;12.40;2.97;;;10.00;82.40;;;;;;5091464;28;20114;-69
2023/01/13 12:07:13;;;;;;;6.13;2.08;;;10.10;82.40;;;;;;5092237;28;20074;-69
2023/01/13 12:10:02;;;;;;;5.35;2.22;;;10.00;82.40;;;;;;5090912;28;20024;-69
2023/01/13 12:13:06;;;;;;;11.45;3.33;;;10.00;82.40;;;;;;5071778;28;20097;-69
2023/01/13 12:15:41;;;;;;;4.22;1.52;;;10.10;81.80;;;;;;5072222;28;20031;-69
2023/01/13 12:18:30;;;;;;;4.63;2.17;;;10.10;82.10;;;;;;5098629;28;20030;-61
2023/01/13 12:21:14;;;;;;;4.13;1.85;;;10.10;82.10;;;;;;5094354;28;20035;-69
2023/01/13 12:23:50;;;;;;;4.25;1.30;;;10.10;82.30;;;;;;5084925;28;20032;-61
2023/01/13 12:26:16;;;;;;;6.40;2.13;;;10.10;82.50;;;;;;5092964;28;20442;-61
2023/01/13 12:28:50;;;;;;;6.25;2.35;;;10.10;82.50;;;;;;5085828;28;20032;-61
2023/01/13 12:31:18;;;;;;;5.32;2.05;;;10.10;82.50;;;;;;5087656;28;20028;-61
2023/01/13 12:33:58;;;;;;;2.13;1.27;;;10.10;82.70;;;;;;5091338;28;20016;-61
2023/01/13 12:36:48;;;;;;;6.30;1.92;;;10.10;82.80;;;;;;5091481;28;20036;-69
2023/01/13 12:39:49;;;;;;;7.00;2.30;;;10.10;82.80;;;;;;5087651;28;20090;-68
2023/01/13 12:45:11;;;;;;;6.20;2.05;;;10.00;82.70;;;;;;5091301;28;20166;-68
2023/01/13 12:47:47;;;;;;;3.83;1.63;;;10.00;82.50;;;;;;5090946;28;20059;-64
2023/01/13 12:50:39;;;;;;;3.58;1.60;;;9.90;82.60;;;;;;5091214;28;20069;-63
2023/01/13 12:53:35;;;;;;;2.42;1.27;;;9.90;82.80;;;;;;5066396;28;20040;-61
2023/01/13 12:56:35;;;;;;;4.18;1.60;;;9.80;83.10;;;;;;5091368;28;20071;-65
2023/01/13 12:59:17;;;;;;;6.05;1.65;;;9.80;83.30;;;;;;5063445;28;20052;-63
2023/01/13 13:01:44;;;;;;;11.13;1.67;;;9.80;83.30;;;;;;5092892;28;20378;-63
2023/01/13 13:04:17;;;;;;;6.00;1.85;;;9.80;83.40;;;;;;5090140;28;20028;-64
2023/01/13 13:06:52;;;;;;;6.78;2.38;;;9.90;83.60;;;;;;5089727;28;20031;-64
2023/01/13 13:09:33;;;;;;;11.52;2.53;;;9.90;83.40;;;;;;5069763;28;20028;-64
2023/01/13 13:15:21;;;;;;;5.65;1.67;;;10.00;83.10;;;;;;5089594;28;20065;-63
2023/01/13 13:18:16;;;;;;;2.55;1.48;;;10.00;83.00;;;;;;5088909;28;20395;-63
2023/01/13 13:21:00;;;;;;;3.03;1.30;;;10.10;82.80;;;;;;5084351;28;20591;-63
2023/01/13 13:23:33;;;;;;;5.00;1.20;;;10.10;82.70;;;;;;5088174;28;20479;-63
2023/01/13 13:26:20;;;;;;;7.43;1.58;;;10.10;82.70;;;;;;5088363;28;20031;-62
2023/01/13 13:29:08;;;;;;;5.07;1.90;;;10.10;82.40;;;;;;5089137;28;20025;-61
2023/01/13 13:31:43;;;;;;;5.22;2.10;;;10.20;82.50;;;;;;5064524;28;20024;-61
2023/01/13 13:34:31;;;;;;;4.95;1.42;;;10.20;81.90;;;;;;5084156;28;20027;-61
2023/01/13 13:37:23;;;;;;;14.43;2.42;;;10.20;81.70;;;;;;5069499;28;20089;-61
2023/01/13 13:48:25;;;;;;;6.30;2.40;;;10.30;80.50;;;;;;5081117;28;20124;-61
2023/01/13 13:51:00;;;;;;;5.25;1.73;;;10.30;79.90;;;;;;5085325;28;20032;-65
2023/01/13 13:53:31;;;;;;;2.28;1.45;;;10.30;79.60;;;;;;5079947;28;20032;-65
2023/01/13 13:55:59;;;;;;;5.57;1.10;;;10.40;79.70;;;;;;5083901;28;20024;-62
2023/01/13 13:58:27;;;;;;;1.48;0.70;;;10.40;78.90;;;;;;5087896;28;20043;-65
2023/01/13 14:00:54;;;;;;;9.75;1.45;;;10.50;78.90;;;;;;5076196;28;20060;-65
2023/01/13 14:03:38;;;;;;;2.30;1.52;;;10.50;78.10;;;;;;5088316;28;20123;-65
2023/01/13 14:06:06;;;;;;;4.05;1.90;;;10.50;78.00;;;;;;5076763;28;20042;-65